Terminal Aerodrome Forecast
Issued by NWS

Home | Current Version | Previous Version | Text Only | Print | Product List | Glossary On
Versions: 1 2 3 4 5 6 7 8 9 10 11
958
FTUS46 KLOX 232346
TAFSBA
TAF
KSBA 232346Z 2400/2424 21005KT P6SM SKC
     FM240300 VRB03KT P6SM SKC
     FM241400 13005KT 4SM BR BKN006
     FM241800 18007KT P6SM SKC
     FM242100 24008KT P6SM SKC=

USA.gov is the U.S. government's official web portal to all federal, state and local government web resources and services.